Time;durP1;ratioP1;P1;durP2;ratioP2;P2;SDS_P1;SDS_P2;PMS_P1;PMS_P2;Temp;Humidity;BMP_temperature;BMP_pressure;BME280_temperature;BME280_humidity;BME280_pressure;Samples;Min_cycle;Max_cycle;Signal;HPM_P1;HPM_P2
2022/06/23 00:02:06;;;;;;;0.00;0.00;;;22.80;61.60;;;;;;4189838;28;20486;-68
2022/06/23 00:04:32;;;;;;;2.72;0.77;;;22.80;61.50;;;;;;4192267;28;20044;-69
2022/06/23 00:06:56;;;;;;;0.30;0.30;;;22.90;61.60;;;;;;4190111;28;20056;-69
2022/06/23 00:09:38;;;;;;;0.00;0.00;;;22.90;61.70;;;;;;4192137;28;20051;-69
2022/06/23 00:12:01;;;;;;;;;;;22.80;61.60;;;;;;4192538;28;20040;-68
2022/06/23 00:14:26;;;;;;;0.00;0.00;;;22.80;61.50;;;;;;4192354;28;19935;-68
2022/06/23 00:16:48;;;;;;;0.00;0.00;;;22.80;61.60;;;;;;4191761;28;20049;-69
2022/06/23 00:19:13;;;;;;;0.00;0.00;;;22.80;61.60;;;;;;4192159;28;20084;-69
2022/06/23 00:21:36;;;;;;;0.20;0.20;;;22.80;61.70;;;;;;4191645;28;20106;-68
2022/06/23 00:24:02;;;;;;;0.00;0.00;;;22.80;61.70;;;;;;4190539;28;20110;-69
2022/06/23 00:26:28;;;;;;;0.00;0.00;;;22.80;62.60;;;;;;4191870;28;20052;-69
2022/06/23 00:28:57;;;;;;;0.00;0.00;;;22.80;61.70;;;;;;4190486;28;20151;-68
2022/06/23 00:31:27;;;;;;;0.00;0.00;;;22.80;61.70;;;;;;4192255;28;20050;-70
2022/06/23 00:33:49;;;;;;;0.00;0.00;;;22.80;61.80;;;;;;4158006;28;20100;-69
2022/06/23 00:36:27;;;;;;;0.00;0.00;;;22.80;61.80;;;;;;4157813;28;20054;-70
2022/06/23 00:38:49;;;;;;;0.00;0.00;;;22.80;61.80;;;;;;4159039;28;20088;-69
2022/06/23 00:41:17;;;;;;;0.00;0.00;;;22.80;61.70;;;;;;4159444;28;20061;-70
2022/06/23 00:43:44;;;;;;;0.00;0.00;;;22.80;61.80;;;;;;4192712;28;20052;-69
2022/06/23 00:46:15;;;;;;;0.00;0.00;;;22.80;61.80;;;;;;4195542;28;20043;-70
2022/06/23 00:48:41;;;;;;;0.30;0.30;;;22.80;61.80;;;;;;4194960;28;20407;-70
2022/06/23 00:51:10;;;;;;;0.00;0.00;;;22.70;61.70;;;;;;4195019;28;20798;-69
2022/06/23 00:53:38;;;;;;;0.30;0.30;;;22.80;61.70;;;;;;4195393;28;20400;-70
2022/06/23 00:56:12;;;;;;;0.00;0.00;;;22.70;61.70;;;;;;4194921;28;20059;-69
2022/06/23 00:58:43;;;;;;;0.00;0.00;;;22.80;61.80;;;;;;4194472;28;20048;-69
2022/06/23 01:01:13;;;;;;;0.00;0.00;;;22.70;61.70;;;;;;4194622;28;20048;-69
2022/06/23 01:03:39;;;;;;;0.00;0.00;;;22.70;61.70;;;;;;4194446;28;20134;-69
2022/06/23 01:06:11;;;;;;;0.00;0.00;;;22.70;61.80;;;;;;4195055;28;20103;-69
2022/06/23 01:08:41;;;;;;;0.00;0.00;;;22.70;61.70;;;;;;4194273;28;20054;-69
2022/06/23 01:11:11;;;;;;;0.00;0.00;;;22.70;61.70;;;;;;4193862;28;20450;-69
2022/06/23 01:13:40;;;;;;;0.00;0.00;;;22.70;61.70;;;;;;4161318;28;20041;-69
2022/06/23 01:16:08;;;;;;;0.00;0.00;;;22.70;61.70;;;;;;4161308;28;20047;-69
2022/06/23 01:18:37;;;;;;;0.00;0.00;;;22.70;61.70;;;;;;4161690;28;20145;-70
2022/06/23 01:21:04;;;;;;;0.10;0.10;;;22.70;61.80;;;;;;4184629;28;20114;-69
2022/06/23 01:23:54;;;;;;;0.00;0.00;;;22.70;61.80;;;;;;4194938;28;20487;-69
2022/06/23 01:26:34;;;;;;;0.00;0.00;;;22.70;61.80;;;;;;4194454;28;20149;-69
2022/06/23 01:29:05;;;;;;;0.00;0.00;;;22.70;61.80;;;;;;4194481;28;20047;-68
2022/06/23 01:31:29;;;;;;;0.00;0.00;;;22.60;61.80;;;;;;4193954;28;20510;-69
2022/06/23 01:33:56;;;;;;;0.00;0.00;;;22.70;61.80;;;;;;4193641;28;20137;-69
2022/06/23 01:36:22;;;;;;;0.00;0.00;;;22.60;61.80;;;;;;4187988;28;20079;-68
2022/06/23 01:38:55;;;;;;;0.00;0.00;;;22.60;61.80;;;;;;4193344;28;20122;-69
2022/06/23 01:41:21;;;;;;;0.00;0.00;;;22.60;61.80;;;;;;4193972;28;20058;-69
2022/06/23 01:43:51;;;;;;;0.00;0.00;;;22.60;61.80;;;;;;4194265;27;20051;-70
2022/06/23 01:46:21;;;;;;;0.00;0.00;;;22.60;61.90;;;;;;4193753;28;20048;-70
2022/06/23 01:48:54;;;;;;;0.00;0.00;;;22.60;61.90;;;;;;4193596;27;20056;-69
2022/06/23 01:51:22;;;;;;;0.00;0.00;;;22.60;61.90;;;;;;4193454;28;20143;-69
2022/06/23 01:53:44;;;;;;;0.00;0.00;;;22.60;61.90;;;;;;4191829;28;20051;-70
2022/06/23 01:56:23;;;;;;;0.00;0.00;;;22.60;61.90;;;;;;4194005;28;20113;-70
2022/06/23 01:58:52;;;;;;;0.00;0.00;;;22.50;61.80;;;;;;4193702;28;20052;-70
2022/06/23 02:01:21;;;;;;;0.00;0.00;;;22.50;61.90;;;;;;4160545;28;20107;-70
2022/06/23 02:03:47;;;;;;;0.00;0.00;;;22.50;61.90;;;;;;4160306;28;20123;-70
2022/06/23 02:06:17;;;;;;;0.00;0.00;;;22.50;61.90;;;;;;4160875;28;20058;-70
2022/06/23 02:08:47;;;;;;;0.00;0.00;;;22.50;61.90;;;;;;4160223;28;20135;-70
2022/06/23 02:11:15;;;;;;;0.43;0.32;;;22.50;62.00;;;;;;4160231;28;20060;-70
2022/06/23 02:13:44;;;;;;;0.10;0.10;;;22.50;62.00;;;;;;4168543;28;20049;-70
2022/06/23 02:16:15;;;;;;;0.00;0.00;;;22.50;62.00;;;;;;4192931;28;20055;-70
2022/06/23 02:18:47;;;;;;;0.00;0.00;;;22.50;62.00;;;;;;4192909;28;20072;-67
2022/06/23 02:21:22;;;;;;;0.00;0.00;;;22.50;62.10;;;;;;4192903;28;20056;-70
2022/06/23 02:23:50;;;;;;;0.00;0.00;;;22.40;62.00;;;;;;4191664;28;20052;-70
2022/06/23 02:26:16;;;;;;;0.00;0.00;;;22.40;62.00;;;;;;4191942;28;20622;-69
2022/06/23 02:28:42;;;;;;;0.00;0.00;;;22.40;62.10;;;;;;4193538;28;20052;-69
2022/06/23 02:31:15;;;;;;;0.00;0.00;;;22.40;62.20;;;;;;4192403;28;20495;-70
2022/06/23 02:33:45;;;;;;;0.00;0.00;;;22.40;62.10;;;;;;4193227;28;20141;-70
2022/06/23 02:36:21;;;;;;;0.35;0.35;;;22.40;62.10;;;;;;4193492;28;20067;-69
2022/06/23 02:38:45;;;;;;;0.00;0.00;;;22.40;62.10;;;;;;4192953;28;20071;-70
2022/06/23 02:41:13;;;;;;;0.00;0.00;;;22.40;62.20;;;;;;4192891;28;20052;-69
2022/06/23 02:43:39;;;;;;;0.00;0.00;;;22.40;62.10;;;;;;4193333;28;20095;-70
2022/06/23 02:46:41;;;;;;;0.00;0.00;;;22.30;62.10;;;;;;4192939;28;20151;-70
2022/06/23 02:49:46;;;;;;;0.00;0.00;;;22.30;62.20;;;;;;4192403;28;20048;-69
2022/06/23 02:52:36;;;;;;;0.00;0.00;;;22.30;62.20;;;;;;4192145;28;20060;-70
2022/06/23 02:55:13;;;;;;;0.00;0.00;;;22.30;62.40;;;;;;4193375;28;20129;-70
2022/06/23 02:57:41;;;;;;;0.00;0.00;;;22.30;62.40;;;;;;4193007;28;20044;-69
2022/06/23 03:00:17;;;;;;;0.00;0.00;;;22.20;62.40;;;;;;4192051;28;20143;-69
2022/06/23 03:02:46;;;;;;;0.10;0.10;;;22.20;62.40;;;;;;4193329;28;20045;-70
2022/06/23 03:05:25;;;;;;;0.00;0.00;;;22.20;62.50;;;;;;4192962;28;20082;-69
2022/06/23 03:07:52;;;;;;;0.00;0.00;;;22.20;62.60;;;;;;4193081;28;20072;-70
2022/06/23 03:10:20;;;;;;;0.00;0.00;;;22.20;62.50;;;;;;4192808;28;20048;-70
2022/06/23 03:12:47;;;;;;;0.25;0.25;;;22.20;62.50;;;;;;4192644;27;20129;-70
2022/06/23 03:15:14;;;;;;;0.20;0.20;;;22.20;63.40;;;;;;4190940;28;20485;-70
2022/06/23 03:17:40;;;;;;;0.00;0.00;;;22.20;62.60;;;;;;4193530;28;20054;-68
2022/06/23 03:20:07;;;;;;;0.00;0.00;;;22.20;62.60;;;;;;4192535;28;20547;-67
2022/06/23 03:22:41;;;;;;;0.25;0.25;;;22.20;62.60;;;;;;4193030;28;20052;-70
2022/06/23 03:25:08;;;;;;;0.00;0.00;;;22.20;62.60;;;;;;4192886;28;20564;-71
2022/06/23 03:27:36;;;;;;;0.00;0.00;;;22.10;62.60;;;;;;4192481;28;20055;-69
2022/06/23 03:30:02;;;;;;;0.00;0.00;;;22.20;62.60;;;;;;4192432;28;20094;-70
2022/06/23 03:32:28;;;;;;;0.00;0.00;;;22.10;62.60;;;;;;4192488;28;20545;-71
2022/06/23 03:35:00;;;;;;;0.00;0.00;;;22.10;62.60;;;;;;4193002;28;20103;-70
2022/06/23 03:37:30;;;;;;;0.00;0.00;;;22.10;62.60;;;;;;4192291;28;20121;-71
2022/06/23 03:43:01;;;;;;;0.05;0.05;;;22.10;63.60;;;;;;4193328;28;20135;-69
2022/06/23 03:45:31;;;;;;;0.00;0.00;;;22.10;63.20;;;;;;4172015;28;20053;-70
2022/06/23 03:48:00;;;;;;;0.15;0.15;;;22.10;63.30;;;;;;4184919;28;20487;-68
2022/06/23 03:50:28;;;;;;;0.00;0.00;;;22.10;63.20;;;;;;4177061;28;20037;-70
2022/06/23 03:52:54;;;;;;;0.00;0.00;;;22.20;63.10;;;;;;4174797;28;20152;-69
2022/06/23 03:55:23;;;;;;;0.00;0.00;;;22.10;62.80;;;;;;4169211;28;20107;-70
2022/06/23 03:57:53;;;;;;;0.00;0.00;;;22.10;62.80;;;;;;4176635;28;20492;-70
2022/06/23 04:00:22;;;;;;;0.00;0.00;;;22.10;62.70;;;;;;4175951;28;20051;-69
2022/06/23 04:03:11;;;;;;;0.20;0.20;;;22.10;62.70;;;;;;4159563;28;20057;-69
2022/06/23 04:06:14;;;;;;;0.00;0.00;;;22.10;62.70;;;;;;4159140;28;20057;-69
2022/06/23 04:08:45;;;;;;;0.00;0.00;;;22.10;62.70;;;;;;4158741;28;20129;-69
2022/06/23 04:14:01;;;;;;;0.22;0.22;;;22.10;62.80;;;;;;4193231;28;20143;-68
2022/06/23 04:16:25;;;;;;;0.00;0.00;;;22.10;62.80;;;;;;4192632;28;20506;-69
2022/06/23 04:18:48;;;;;;;0.63;0.63;;;22.10;62.80;;;;;;4196063;28;20063;-69
2022/06/23 04:21:14;;;;;;;0.00;0.00;;;22.10;62.80;;;;;;4195494;28;20072;-68
2022/06/23 04:23:40;;;;;;;0.00;0.00;;;22.10;62.90;;;;;;4190597;28;20455;-69
2022/06/23 04:26:06;;;;;;;0.00;0.00;;;22.10;62.80;;;;;;4188703;28;20037;-69
2022/06/23 04:28:34;;;;;;;0.00;0.00;;;22.10;62.90;;;;;;4162235;28;20063;-69
2022/06/23 04:31:00;;;;;;;0.35;0.35;;;22.10;62.80;;;;;;4161125;28;20041;-69
2022/06/23 04:33:25;;;;;;;0.00;0.00;;;22.00;62.90;;;;;;4160760;28;20096;-68
2022/06/23 04:35:51;;;;;;;0.00;0.00;;;22.10;62.90;;;;;;4146206;28;20137;-69
2022/06/23 04:38:20;;;;;;;0.00;0.00;;;22.10;63.00;;;;;;4145425;28;20143;-68
2022/06/23 04:40:49;;;;;;;0.00;0.00;;;22.10;62.90;;;;;;4160698;28;20064;-69
2022/06/23 04:43:18;;;;;;;0.10;0.10;;;22.10;62.90;;;;;;4188284;28;20052;-69
2022/06/23 04:45:51;;;;;;;0.00;0.00;;;22.10;62.90;;;;;;4194563;28;20076;-69
2022/06/23 04:48:21;;;;;;;0.08;0.08;;;22.10;62.90;;;;;;4194820;28;20462;-69
2022/06/23 04:50:48;;;;;;;0.00;0.00;;;22.10;62.80;;;;;;4193203;28;20080;-69
2022/06/23 04:53:19;;;;;;;0.38;0.38;;;22.10;62.80;;;;;;4195287;28;20056;-69
2022/06/23 04:55:42;;;;;;;0.08;0.08;;;22.10;63.70;;;;;;4195214;28;20573;-69
2022/06/23 04:58:13;;;;;;;0.00;0.00;;;22.20;62.80;;;;;;4186953;28;20060;-70
2022/06/23 05:00:41;;;;;;;0.00;0.00;;;22.20;62.80;;;;;;4178489;28;20185;-69
2022/06/23 05:03:13;;;;;;;0.00;0.00;;;22.20;62.90;;;;;;4178716;28;20048;-70
2022/06/23 05:05:37;;;;;;;0.00;0.00;;;22.20;62.90;;;;;;4178456;28;20147;-69
2022/06/23 05:08:04;;;;;;;0.00;0.00;;;22.20;62.90;;;;;;4178482;28;20439;-69
2022/06/23 05:10:28;;;;;;;0.00;0.00;;;22.10;62.90;;;;;;4178492;28;20059;-69
2022/06/23 05:12:54;;;;;;;0.00;0.00;;;22.10;62.90;;;;;;4195100;28;20056;-69
2022/06/23 05:15:20;;;;;;;0.00;0.00;;;22.10;63.00;;;;;;4194502;28;20052;-69
2022/06/23 05:17:50;;;;;;;0.13;0.13;;;22.20;63.00;;;;;;4195458;28;20040;-68
2022/06/23 05:20:21;;;;;;;0.28;0.28;;;22.20;63.10;;;;;;4194550;28;20063;-68
2022/06/23 05:22:46;;;;;;;;;;;22.20;63.30;;;;;;4195061;28;20055;-69
2022/06/23 05:25:32;;;;;;;0.00;0.00;;;22.30;63.30;;;;;;4193765;28;19920;-68
2022/06/23 05:27:55;;;;;;;0.00;0.00;;;22.30;63.20;;;;;;4161105;28;20041;-68
2022/06/23 05:30:26;;;;;;;0.55;0.55;;;22.50;63.00;;;;;;4187154;28;20555;-68
2022/06/23 05:32:51;;;;;;;0.00;0.00;;;22.60;62.70;;;;;;4161440;28;20057;-69
2022/06/23 05:35:20;;;;;;;2.78;1.75;;;22.60;62.30;;;;;;4190351;28;20080;-69
2022/06/23 05:37:48;;;;;;;0.00;0.00;;;22.70;62.00;;;;;;4195161;28;20140;-68
2022/06/23 05:40:25;;;;;;;0.30;0.30;;;22.70;62.80;;;;;;4194342;28;20496;-69
2022/06/23 05:42:50;;;;;;;0.15;0.15;;;22.80;61.60;;;;;;4194504;28;20068;-68
2022/06/23 05:45:18;;;;;;;0.57;0.55;;;22.90;61.60;;;;;;4194702;28;20052;-68
2022/06/23 05:47:41;;;;;;;0.00;0.00;;;22.90;61.40;;;;;;4194350;28;20098;-68
2022/06/23 05:50:07;;;;;;;0.00;0.00;;;22.90;61.20;;;;;;4194179;28;20510;-70
2022/06/23 05:52:38;;;;;;;1.83;1.23;;;22.90;61.20;;;;;;4194369;28;20140;-69
2022/06/23 05:55:07;;;;;;;0.10;0.10;;;22.90;61.30;;;;;;4194426;28;20054;-69
2022/06/23 05:57:34;;;;;;;1.45;1.35;;;22.90;61.30;;;;;;4194200;28;20463;-69
2022/06/23 06:00:14;;;;;;;0.30;0.30;;;22.90;61.50;;;;;;4194259;28;20139;-69
2022/06/23 06:02:43;;;;;;;0.55;0.55;;;22.90;61.70;;;;;;4194174;28;20047;-69
2022/06/23 06:05:08;;;;;;;0.50;0.35;;;22.80;61.80;;;;;;4194157;28;20048;-68
2022/06/23 06:07:36;;;;;;;0.80;0.80;;;22.80;62.10;;;;;;4194413;28;20098;-69
2022/06/23 06:09:58;;;;;;;0.00;0.00;;;22.80;62.60;;;;;;4194066;28;20139;-70
2022/06/23 06:12:24;;;;;;;0.00;0.00;;;22.70;62.80;;;;;;4194230;28;20056;-70
2022/06/23 06:14:51;;;;;;;0.20;0.20;;;22.80;63.10;;;;;;4193716;28;20094;-68
2022/06/23 06:17:19;;;;;;;0.05;0.05;;;22.80;63.20;;;;;;4167350;28;20052;-69
2022/06/23 06:19:41;;;;;;;0.20;0.20;;;22.80;63.20;;;;;;4172219;28;20200;-69
2022/06/23 06:22:29;;;;;;;0.22;0.22;;;22.80;63.20;;;;;;4160852;28;20052;-69
2022/06/23 06:24:56;;;;;;;0.00;0.00;;;22.80;63.40;;;;;;4173145;28;20048;-69
2022/06/23 06:27:19;;;;;;;0.00;0.00;;;22.80;63.40;;;;;;4177648;28;20045;-69
2022/06/23 06:29:44;;;;;;;0.10;0.10;;;22.90;63.50;;;;;;4177264;28;20384;-69
2022/06/23 06:32:19;;;;;;;0.00;0.00;;;22.90;63.50;;;;;;4175167;28;20094;-68
2022/06/23 06:34:47;;;;;;;0.00;0.00;;;22.90;63.60;;;;;;4160651;28;20488;-70
2022/06/23 06:37:12;;;;;;;0.15;0.15;;;22.90;63.70;;;;;;4165040;28;20057;-68
2022/06/23 06:39:39;;;;;;;0.00;0.00;;;22.90;63.90;;;;;;4160390;28;20049;-69
2022/06/23 06:42:06;;;;;;;0.55;0.55;;;22.90;63.90;;;;;;4159799;28;20072;-69
2022/06/23 06:44:30;;;;;;;0.00;0.00;;;23.00;64.30;;;;;;4187020;28;20055;-69
2022/06/23 06:46:51;;;;;;;0.00;0.00;;;23.00;64.30;;;;;;4160156;28;20053;-69
2022/06/23 06:49:17;;;;;;;0.10;0.10;;;23.10;64.10;;;;;;4162100;28;20155;-69
2022/06/23 06:51:40;;;;;;;0.03;0.03;;;23.10;63.90;;;;;;4176654;28;20041;-69
2022/06/23 06:54:06;;;;;;;0.00;0.00;;;23.10;63.60;;;;;;4191691;28;20506;-69
2022/06/23 06:56:36;;;;;;;1.13;1.13;;;23.20;63.40;;;;;;4190012;28;20105;-69
2022/06/23 06:59:04;;;;;;;0.30;0.30;;;23.30;63.30;;;;;;4176993;28;20128;-69
2022/06/23 07:01:28;;;;;;;0.20;0.20;;;23.40;63.10;;;;;;4176046;28;20056;-68
2022/06/23 07:03:54;;;;;;;0.20;0.20;;;23.40;63.80;;;;;;4176419;28;20045;-68
2022/06/23 07:06:20;;;;;;;0.10;0.10;;;23.50;62.90;;;;;;4177035;28;20049;-68
2022/06/23 07:08:47;;;;;;;0.00;0.00;;;23.50;62.60;;;;;;4176791;28;20408;-67
2022/06/23 07:11:16;;;;;;;0.00;0.00;;;23.60;62.10;;;;;;4174830;28;20795;-68
2022/06/23 07:13:44;;;;;;;0.00;0.00;;;23.70;62.40;;;;;;4182847;28;20102;-68
2022/06/23 07:16:16;;;;;;;0.00;0.00;;;23.70;62.50;;;;;;4173824;28;20095;-69
2022/06/23 07:18:45;;;;;;;0.20;0.20;;;23.80;62.50;;;;;;4173171;28;20495;-68
2022/06/23 07:21:12;;;;;;;0.10;0.10;;;23.80;62.50;;;;;;4159515;28;20053;-68
2022/06/23 07:23:40;;;;;;;0.00;0.00;;;23.80;61.90;;;;;;4159875;28;20060;-68
2022/06/23 07:26:34;;;;;;;0.00;0.00;;;23.90;61.90;;;;;;4175505;28;20056;-66
2022/06/23 07:29:00;;;;;;;0.00;0.00;;;23.90;61.90;;;;;;4172952;28;20099;-64
2022/06/23 07:31:40;;;;;;;0.10;0.10;;;23.90;61.70;;;;;;4180622;28;20159;-66
2022/06/23 07:34:06;;;;;;;0.00;0.00;;;23.90;61.80;;;;;;4180695;28;20083;-67
2022/06/23 07:36:35;;;;;;;0.00;0.00;;;24.00;62.70;;;;;;4180833;28;20080;-66
2022/06/23 07:39:05;;;;;;;0.17;0.17;;;24.00;62.10;;;;;;4183800;28;20059;-66
2022/06/23 07:41:35;;;;;;;0.82;0.73;;;24.00;61.50;;;;;;4197087;28;20114;-67
2022/06/23 07:44:04;;;;;;;0.03;0.03;;;24.00;61.30;;;;;;4196901;28;20064;-66
2022/06/23 07:46:26;;;;;;;0.10;0.10;;;24.00;61.50;;;;;;4196993;28;20088;-67
2022/06/23 07:48:50;;;;;;;0.00;0.00;;;24.00;61.50;;;;;;4195900;28;20072;-67
2022/06/23 07:51:12;;;;;;;0.45;0.45;;;24.10;61.40;;;;;;4196695;28;20055;-67
2022/06/23 07:53:37;;;;;;;0.00;0.00;;;24.00;61.30;;;;;;4196290;28;20099;-67
2022/06/23 07:56:00;;;;;;;0.45;0.45;;;24.10;61.30;;;;;;4196576;28;20056;-67
2022/06/23 07:58:24;;;;;;;0.38;0.25;;;24.00;62.10;;;;;;4196715;28;20056;-67
2022/06/23 08:00:49;;;;;;;0.32;0.32;;;24.10;61.20;;;;;;4196635;28;20558;-67
2022/06/23 08:03:14;;;;;;;0.00;0.00;;;24.10;61.30;;;;;;4196528;28;20064;-66
2022/06/23 08:05:42;;;;;;;0.00;0.00;;;24.10;61.20;;;;;;4196629;28;20056;-66
2022/06/23 08:08:05;;;;;;;0.25;0.25;;;24.10;61.10;;;;;;4196530;28;20407;-66
2022/06/23 08:10:31;;;;;;;0.00;0.00;;;24.10;61.10;;;;;;4195711;28;20163;-67
2022/06/23 08:12:57;;;;;;;0.03;0.03;;;24.10;61.10;;;;;;4186179;28;20059;-67
2022/06/23 08:18:07;;;;;;;0.00;0.00;;;24.10;61.00;;;;;;4196737;28;20056;-67
2022/06/23 08:20:32;;;;;;;0.00;0.00;;;24.10;60.90;;;;;;4196920;28;20385;-67
2022/06/23 08:22:56;;;;;;;0.00;0.00;;;24.20;60.90;;;;;;4196586;28;20457;-66
2022/06/23 08:25:18;;;;;;;1.35;1.20;;;24.10;60.80;;;;;;4196620;28;20056;-67
2022/06/23 08:27:45;;;;;;;0.00;0.00;;;24.20;61.00;;;;;;4196680;28;20166;-66
2022/06/23 08:30:09;;;;;;;0.32;0.32;;;24.20;61.00;;;;;;4196873;28;20056;-66
2022/06/23 08:32:31;;;;;;;0.38;0.38;;;24.20;60.80;;;;;;4196637;28;20143;-67
2022/06/23 08:34:59;;;;;;;0.20;0.20;;;24.20;60.90;;;;;;4196623;28;20106;-67
2022/06/23 08:37:24;;;;;;;0.13;0.13;;;24.30;60.80;;;;;;4195798;28;20139;-67
2022/06/23 08:39:53;;;;;;;0.08;0.08;;;24.20;60.60;;;;;;4196294;28;20055;-67
2022/06/23 08:42:22;;;;;;;3.08;0.55;;;24.30;60.70;;;;;;4196876;28;20052;-67
2022/06/23 08:44:51;;;;;;;2.35;1.40;;;24.30;60.60;;;;;;4196131;28;20056;-67
2022/06/23 08:47:21;;;;;;;6.57;1.90;;;24.30;60.40;;;;;;4195213;28;20048;-67
2022/06/23 08:49:49;;;;;;;0.10;0.10;;;24.30;60.40;;;;;;4195866;28;20567;-67
2022/06/23 08:52:18;;;;;;;0.00;0.00;;;24.40;60.20;;;;;;4193538;28;20056;-68
2022/06/23 08:54:48;;;;;;;0.00;0.00;;;24.40;60.20;;;;;;4198801;28;20106;-66
2022/06/23 08:57:19;;;;;;;0.00;0.00;;;24.40;60.60;;;;;;4201145;28;20048;-67
2022/06/23 08:59:47;;;;;;;;;;;24.40;59.90;;;;;;4196548;28;20060;-66
2022/06/23 09:02:18;;;;;;;0.00;0.00;;;24.50;59.90;;;;;;4197230;28;19935;-67
2022/06/23 09:05:09;;;;;;;0.10;0.10;;;24.40;59.70;;;;;;4226916;28;20415;-66
2022/06/23 09:07:43;;;;;;;0.00;0.00;;;24.50;59.70;;;;;;4199229;28;20503;-66
2022/06/23 09:10:20;;;;;;;1.25;0.80;;;24.50;59.60;;;;;;4198854;28;20130;-66
2022/06/23 09:12:50;;;;;;;0.20;0.20;;;24.60;59.60;;;;;;4198943;28;20090;-66
2022/06/23 09:15:29;;;;;;;0.17;0.15;;;24.60;59.50;;;;;;4198544;28;20056;-66
2022/06/23 09:18:23;;;;;;;0.35;0.35;;;24.60;59.40;;;;;;4198546;28;20206;-67
2022/06/23 09:21:25;;;;;;;0.00;0.00;;;24.60;59.30;;;;;;4199104;28;20136;-67
2022/06/23 09:24:05;;;;;;;1.83;1.00;;;24.60;59.20;;;;;;4187437;28;20052;-66
2022/06/23 09:26:39;;;;;;;0.00;0.00;;;24.70;59.20;;;;;;4189549;28;20052;-67
2022/06/23 09:29:12;;;;;;;0.00;0.00;;;24.70;59.10;;;;;;4193129;28;20049;-67
2022/06/23 09:31:47;;;;;;;0.10;0.10;;;24.80;59.10;;;;;;4192733;28;20052;-67
2022/06/23 09:34:15;;;;;;;0.00;0.00;;;24.80;58.90;;;;;;4161246;28;20515;-67
2022/06/23 09:37:11;;;;;;;0.00;0.00;;;24.80;58.90;;;;;;4161563;28;20061;-67
2022/06/23 09:39:56;;;;;;;2.65;1.17;;;24.90;58.90;;;;;;4177479;28;20460;-67
2022/06/23 09:43:09;;;;;;;0.28;0.28;;;24.90;58.70;;;;;;4193952;28;20477;-67
2022/06/23 09:45:53;;;;;;;0.10;0.10;;;25.00;58.70;;;;;;4183089;28;20056;-67
2022/06/23 09:48:47;;;;;;;0.00;0.00;;;25.00;59.30;;;;;;4193713;28;20223;-67
2022/06/23 09:51:45;;;;;;;0.00;0.00;;;25.00;58.50;;;;;;4193849;28;20487;-70
2022/06/23 09:54:22;;;;;;;0.38;0.38;;;25.00;58.40;;;;;;4165123;28;20103;-65
2022/06/23 09:57:03;;;;;;;0.10;0.10;;;25.10;58.40;;;;;;4194028;28;20064;-65
2022/06/23 09:59:44;;;;;;;0.20;0.20;;;25.10;58.10;;;;;;4190054;27;20047;-66
2022/06/23 10:02:16;;;;;;;0.00;0.00;;;25.20;58.10;;;;;;4198389;28;20079;-65
2022/06/23 10:04:57;;;;;;;0.00;0.00;;;25.20;57.90;;;;;;4190169;28;20133;-69
2022/06/23 10:07:43;;;;;;;0.52;0.52;;;25.30;57.80;;;;;;4192569;28;20476;-69
2022/06/23 10:10:17;;;;;;;0.00;0.00;;;25.30;57.50;;;;;;4193776;28;20076;-69
2022/06/23 10:13:05;;;;;;;0.20;0.20;;;25.30;57.50;;;;;;4193633;28;20048;-69
2022/06/23 10:15:46;;;;;;;0.28;0.28;;;25.30;57.30;;;;;;4176016;28;20044;-69
2022/06/23 10:18:42;;;;;;;0.00;0.00;;;25.40;57.10;;;;;;4169820;28;20107;-70
2022/06/23 10:21:20;;;;;;;0.00;0.00;;;25.40;56.90;;;;;;4105892;28;20058;-69
2022/06/23 10:24:08;;;;;;;0.00;0.00;;;25.40;56.80;;;;;;4158917;28;20140;-68
2022/06/23 10:26:50;;;;;;;0.00;0.00;;;25.50;56.80;;;;;;4165904;28;20045;-68
2022/06/23 10:29:45;;;;;;;0.00;0.00;;;25.50;56.80;;;;;;4157152;28;20488;-69
2022/06/23 10:32:44;;;;;;;0.00;0.00;;;25.50;56.70;;;;;;4161899;28;20128;-69
2022/06/23 10:35:26;;;;;;;0.00;0.00;;;25.50;56.70;;;;;;4163603;28;20419;-68
2022/06/23 10:38:06;;;;;;;0.00;0.00;;;25.60;56.60;;;;;;4170636;28;20637;-69
2022/06/23 10:40:55;;;;;;;0.00;0.00;;;25.60;56.50;;;;;;4160347;28;20374;-69
2022/06/23 10:43:44;;;;;;;0.00;0.00;;;25.60;56.40;;;;;;4173613;28;20401;-69
2022/06/23 10:46:14;;;;;;;0.10;0.10;;;25.60;56.30;;;;;;4172665;28;20141;-69
2022/06/23 10:49:08;;;;;;;0.00;0.00;;;25.60;56.30;;;;;;4161674;28;20073;-69
2022/06/23 10:51:52;;;;;;;0.00;0.00;;;25.70;56.30;;;;;;4170159;28;20107;-69
2022/06/23 10:54:46;;;;;;;0.10;0.10;;;25.70;56.20;;;;;;4156445;28;20061;-69
2022/06/23 10:57:23;;;;;;;0.00;0.00;;;25.70;56.10;;;;;;4169063;28;20056;-67
2022/06/23 11:00:02;;;;;;;0.10;0.10;;;25.70;56.00;;;;;;4166689;28;20080;-69
2022/06/23 11:02:58;;;;;;;0.00;0.00;;;25.80;56.00;;;;;;4164996;28;20398;-69
2022/06/23 11:05:35;;;;;;;0.05;0.05;;;25.80;56.00;;;;;;4157701;28;20056;-69
2022/06/23 11:08:11;;;;;;;0.10;0.10;;;25.80;55.90;;;;;;4164222;28;20159;-69
2022/06/23 11:10:46;;;;;;;0.00;0.00;;;25.80;55.80;;;;;;4159198;28;20045;-68
2022/06/23 11:13:20;;;;;;;0.17;0.17;;;25.90;55.80;;;;;;4155600;28;20083;-68
2022/06/23 11:15:54;;;;;;;0.00;0.00;;;25.90;55.70;;;;;;4157622;28;20132;-68
2022/06/23 11:18:28;;;;;;;0.10;0.10;;;25.90;55.70;;;;;;4159628;28;20083;-68
2022/06/23 11:21:01;;;;;;;0.00;0.00;;;25.90;55.60;;;;;;4157661;28;20049;-69
2022/06/23 11:23:39;;;;;;;0.00;0.00;;;26.00;55.60;;;;;;4158007;28;20056;-69
2022/06/23 11:26:10;;;;;;;0.00;0.00;;;26.00;55.60;;;;;;4166535;28;20041;-68
2022/06/23 11:28:47;;;;;;;0.08;0.08;;;26.00;55.50;;;;;;4157484;28;20057;-68
2022/06/23 11:31:26;;;;;;;0.00;0.00;;;26.00;55.50;;;;;;4156855;28;20587;-69
2022/06/23 11:34:03;;;;;;;0.00;0.00;;;26.10;55.50;;;;;;4157860;28;20424;-68
2022/06/23 11:36:38;;;;;;;0.00;0.00;;;26.10;55.30;;;;;;4164011;28;20499;-68
2022/06/23 11:39:20;;;;;;;0.00;0.00;;;26.10;55.30;;;;;;4171615;28;20546;-69
2022/06/23 11:42:00;;;;;;;0.08;0.08;;;26.10;55.30;;;;;;4197057;28;20151;-69
2022/06/23 11:44:49;;;;;;;0.00;0.00;;;26.10;55.20;;;;;;4167606;28;20091;-68
2022/06/23 11:47:20;;;;;;;0.00;0.00;;;26.20;55.20;;;;;;4166806;28;20060;-69
2022/06/23 11:49:54;;;;;;;0.47;0.47;;;26.20;55.10;;;;;;4161042;28;20139;-69
2022/06/23 11:52:32;;;;;;;0.00;0.00;;;26.20;55.00;;;;;;4193294;28;20491;-68
2022/06/23 11:55:15;;;;;;;0.10;0.10;;;26.30;55.10;;;;;;4160314;28;20056;-68
2022/06/23 11:57:56;;;;;;;0.00;0.00;;;26.30;55.00;;;;;;4157150;28;20049;-69
2022/06/23 12:00:23;;;;;;;0.00;0.00;;;26.30;55.00;;;;;;4162219;28;20049;-69
2022/06/23 12:03:15;;;;;;;0.00;0.00;;;26.30;54.90;;;;;;4159602;28;20045;-68
2022/06/23 12:05:46;;;;;;;0.63;0.22;;;26.40;54.90;;;;;;4157023;28;20049;-68
2022/06/23 12:08:35;;;;;;;0.05;0.05;;;26.40;54.80;;;;;;4159931;28;20503;-68
2022/06/23 12:11:00;;;;;;;0.00;0.00;;;26.40;54.80;;;;;;4161587;28;20187;-68
2022/06/23 12:13:23;;;;;;;0.00;0.00;;;26.40;54.70;;;;;;4157899;28;20079;-68
2022/06/23 12:15:50;;;;;;;0.80;0.73;;;26.40;54.70;;;;;;4167770;28;20051;-68
2022/06/23 12:18:17;;;;;;;0.00;0.00;;;26.40;54.60;;;;;;4163041;28;20053;-69
2022/06/23 12:20:47;;;;;;;0.00;0.00;;;26.50;54.20;;;;;;4156550;28;20045;-69
2022/06/23 12:23:16;;;;;;;0.00;0.00;;;26.50;54.40;;;;;;4165923;28;20060;-69
2022/06/23 12:25:45;;;;;;;0.00;0.00;;;26.50;54.30;;;;;;4160820;28;20041;-71
2022/06/23 12:28:21;;;;;;;0.00;0.00;;;26.50;54.00;;;;;;4171549;28;20061;-68
2022/06/23 12:30:50;;;;;;;0.95;0.73;;;26.60;54.20;;;;;;4157299;28;20505;-70
2022/06/23 12:33:18;;;;;;;0.00;0.00;;;26.60;54.10;;;;;;4159405;28;20054;-69
2022/06/23 12:35:46;;;;;;;0.00;0.00;;;26.70;54.10;;;;;;4170997;28;20049;-68
2022/06/23 12:38:12;;;;;;;0.00;0.00;;;26.60;54.00;;;;;;4172341;28;20131;-69
2022/06/23 12:40:40;;;;;;;0.32;0.32;;;26.70;53.70;;;;;;4169352;28;20484;-69
2022/06/23 12:43:09;;;;;;;0.00;0.00;;;26.70;53.80;;;;;;4164504;28;20178;-70
2022/06/23 12:45:56;;;;;;;0.00;0.00;;;26.70;53.80;;;;;;4161455;28;20045;-70
2022/06/23 12:49:05;;;;;;;0.10;0.10;;;26.80;53.80;;;;;;4158966;28;20060;-69
2022/06/23 12:51:37;;;;;;;0.00;0.00;;;26.80;53.70;;;;;;4160636;28;20049;-70
2022/06/23 12:54:22;;;;;;;0.00;0.00;;;26.90;53.70;;;;;;4168115;28;20449;-69
2022/06/23 12:57:12;;;;;;;0.00;0.00;;;26.90;53.60;;;;;;4168958;28;20045;-69
2022/06/23 12:59:42;;;;;;;0.10;0.10;;;26.90;53.50;;;;;;4174765;28;20060;-69
2022/06/23 13:02:17;;;;;;;0.57;0.57;;;26.90;53.40;;;;;;4167685;28;20057;-69
2022/06/23 13:04:50;;;;;;;0.00;0.00;;;26.90;53.90;;;;;;4160248;28;20048;-69
2022/06/23 13:07:20;;;;;;;0.08;0.08;;;27.00;53.10;;;;;;4171299;28;20135;-68
2022/06/23 13:09:55;;;;;;;0.00;0.00;;;27.00;52.80;;;;;;4175367;28;20103;-69
2022/06/23 13:12:37;;;;;;;0.00;0.00;;;27.00;53.00;;;;;;4158597;28;20628;-69
2022/06/23 13:15:05;;;;;;;0.00;0.00;;;27.00;52.90;;;;;;4172091;28;20049;-69
2022/06/23 13:17:38;;;;;;;0.00;0.00;;;27.10;52.90;;;;;;4169870;28;20373;-69
2022/06/23 13:20:09;;;;;;;0.22;0.22;;;27.10;52.60;;;;;;4157198;28;20184;-69
2022/06/23 13:22:33;;;;;;;;;;;27.10;52.50;;;;;;4168419;28;20114;-69